createdAt,value
2023-03-30T00:01:18.969Z,67.26
2023-03-30T00:03:49.978Z,66.95
2023-03-30T00:06:22.977Z,66.95
2023-03-30T00:08:53.751Z,67.29
2023-03-30T00:11:23.454Z,67.39
2023-03-30T00:13:52.087Z,67.26
2023-03-30T00:16:20.618Z,67.14
2023-03-30T00:18:48.778Z,66.96
2023-03-30T00:21:18.517Z,67.04
2023-03-30T00:23:48.188Z,66.97
2023-03-30T00:26:16.833Z,67.28
2023-03-30T00:28:45.403Z,67.15
2023-03-30T00:31:14.298Z,66.79
2023-03-30T00:33:47.040Z,67.00
2023-03-30T00:36:17.272Z,66.97
2023-03-30T00:38:46.221Z,66.84
2023-03-30T00:41:14.691Z,66.88
2023-03-30T00:44:32.922Z,66.78
2023-03-30T00:47:01.600Z,66.97
2023-03-30T00:49:32.183Z,67.06
2023-03-30T00:52:03.017Z,66.73
2023-03-30T00:54:33.022Z,66.51
2023-03-30T00:57:04.526Z,66.88
2023-03-30T00:59:38.620Z,66.67
2023-03-30T01:02:07.429Z,66.25
2023-03-30T01:04:37.778Z,66.58
2023-03-30T01:07:06.284Z,66.67
2023-03-30T01:09:34.710Z,66.40
2023-03-30T01:12:05.592Z,66.38
2023-03-30T01:14:34.182Z,66.33
2023-03-30T01:17:25.853Z,66.49
2023-03-30T01:20:13.039Z,66.24
2023-03-30T01:23:12.525Z,66.10
2023-03-30T01:25:47.413Z,66.13
2023-03-30T01:28:24.336Z,66.03
2023-03-30T01:31:14.102Z,66.20
2023-03-30T01:34:00.869Z,66.29
2023-03-30T01:36:52.406Z,66.11
2023-03-30T01:39:39.869Z,66.31
2023-03-30T01:42:33.805Z,66.45
2023-03-30T01:45:08.726Z,66.39
2023-03-30T01:47:52.432Z,66.53
2023-03-30T01:50:29.856Z,66.43
2023-03-30T01:53:06.937Z,66.35
2023-03-30T01:55:47.164Z,66.23
2023-03-30T01:58:47.544Z,66.43
2023-03-30T02:01:17.604Z,66.41
2023-03-30T02:03:50.358Z,66.32
2023-03-30T02:06:24.736Z,66.37
2023-03-30T02:08:55.978Z,66.48
2023-03-30T02:11:24.348Z,66.17
2023-03-30T02:13:52.766Z,66.40
2023-03-30T02:16:24.743Z,66.32
2023-03-30T02:18:54.818Z,66.50
2023-03-30T02:21:22.969Z,66.55
2023-03-30T02:23:54.264Z,66.56
2023-03-30T02:26:23.008Z,66.51
2023-03-30T02:28:51.337Z,66.41
2023-03-30T02:31:19.796Z,66.49
2023-03-30T02:33:53.315Z,66.59
2023-03-30T02:36:46.110Z,66.42
2023-03-30T02:39:21.329Z,66.64
2023-03-30T02:42:01.051Z,66.55
2023-03-30T02:44:48.215Z,66.44
2023-03-30T02:47:25.510Z,66.52
2023-03-30T02:50:31.425Z,66.48
2023-03-30T02:53:12.833Z,66.84
2023-03-30T02:55:56.486Z,66.41
2023-03-30T02:58:43.816Z,66.29
2023-03-30T03:01:18.964Z,66.24
2023-03-30T03:03:54.247Z,66.42
2023-03-30T03:06:23.922Z,66.42
2023-03-30T03:08:57.620Z,66.50
2023-03-30T03:11:28.255Z,66.51
2023-03-30T03:13:57.389Z,66.43
2023-03-30T03:16:27.226Z,66.49
2023-03-30T03:19:10.694Z,66.24
2023-03-30T03:21:42.889Z,66.20
2023-03-30T03:24:13.565Z,66.08
2023-03-30T03:27:01.201Z,65.99
2023-03-30T03:29:30.912Z,66.29
2023-03-30T03:31:59.566Z,66.29
2023-03-30T03:34:31.681Z,66.19
2023-03-30T03:37:02.752Z,66.17
2023-03-30T03:39:32.265Z,66.22
2023-03-30T03:42:06.883Z,66.42
2023-03-30T03:44:37.964Z,66.36
2023-03-30T03:47:06.732Z,66.31
2023-03-30T03:49:34.994Z,66.47
2023-03-30T03:52:04.159Z,66.42
2023-03-30T03:54:32.619Z,66.44
2023-03-30T03:57:02.182Z,66.32
2023-03-30T03:59:31.215Z,66.60
2023-03-30T04:02:00.285Z,66.65
2023-03-30T04:04:29.618Z,66.46
2023-03-30T04:06:58.164Z,66.69
2023-03-30T04:09:26.362Z,66.50
2023-03-30T04:12:24.296Z,66.48
2023-03-30T04:15:12.087Z,66.46
2023-03-30T04:17:50.217Z,66.27
2023-03-30T04:20:59.660Z,65.69
2023-03-30T04:24:04.662Z,65.09
2023-03-30T04:26:51.790Z,64.08
2023-03-30T04:29:52.377Z,63.72
2023-03-30T04:32:47.305Z,63.74
2023-03-30T04:35:49.140Z,63.23
2023-03-30T04:38:36.601Z,63.10
2023-03-30T04:41:46.049Z,62.78
2023-03-30T04:44:31.084Z,62.35
2023-03-30T04:47:37.868Z,61.67
2023-03-30T04:50:35.116Z,61.09
2023-03-30T04:53:23.214Z,60.77
2023-03-30T04:56:14.921Z,60.20
2023-03-30T04:58:59.820Z,59.53
2023-03-30T05:02:06.494Z,59.02
2023-03-30T05:05:01.389Z,58.31
2023-03-30T05:07:48.948Z,57.85
2023-03-30T05:10:43.156Z,57.38
2023-03-30T05:13:17.431Z,56.50
2023-03-30T05:16:05.644Z,55.87
2023-03-30T05:19:05.358Z,55.37
2023-03-30T05:21:54.756Z,54.80
2023-03-30T05:24:47.409Z,54.46
2023-03-30T05:27:36.077Z,54.08
2023-03-30T05:30:17.555Z,53.24
2023-03-30T05:33:06.668Z,53.08
2023-03-30T05:36:04.836Z,52.54
2023-03-30T05:38:52.633Z,52.22
2023-03-30T05:41:56.058Z,51.73
2023-03-30T05:44:45.440Z,50.65
2023-03-30T05:47:35.834Z,50.46
2023-03-30T05:50:13.833Z,50.35
2023-03-30T05:52:59.060Z,49.64
2023-03-30T05:55:53.582Z,49.33
2023-03-30T05:58:52.306Z,48.91
2023-03-30T06:01:42.775Z,48.23
2023-03-30T06:04:11.805Z,47.97
2023-03-30T06:06:40.861Z,47.26
2023-03-30T06:09:14.622Z,47.57
2023-03-30T06:11:45.016Z,47.35
2023-03-30T06:14:19.672Z,46.38
2023-03-30T06:17:06.136Z,46.07
2023-03-30T06:19:34.866Z,46.01
2023-03-30T06:22:03.054Z,45.77
2023-03-30T06:24:40.357Z,45.62
2023-03-30T06:27:09.396Z,45.81
2023-03-30T06:29:38.516Z,45.65
2023-03-30T06:32:07.222Z,45.20
2023-03-30T06:34:47.374Z,44.93
2023-03-30T06:37:15.952Z,44.65
2023-03-30T06:39:45.695Z,44.29
2023-03-30T06:42:14.438Z,44.12
2023-03-30T06:45:01.371Z,43.94
2023-03-30T06:47:29.858Z,43.60
2023-03-30T06:50:00.761Z,43.17
2023-03-30T06:52:29.573Z,42.95
2023-03-30T06:54:58.553Z,42.67
2023-03-30T06:57:26.851Z,42.62
2023-03-30T06:59:56.066Z,42.32
2023-03-30T07:02:26.899Z,41.98
2023-03-30T07:05:01.281Z,41.34
2023-03-30T07:07:38.167Z,41.12
2023-03-30T07:10:10.560Z,41.18
2023-03-30T07:12:41.179Z,41.62
2023-03-30T07:15:10.445Z,41.20
2023-03-30T07:17:42.198Z,40.86
2023-03-30T07:20:23.514Z,40.72
2023-03-30T07:23:18.599Z,40.12
2023-03-30T07:25:47.170Z,39.97
2023-03-30T07:28:23.077Z,39.91
2023-03-30T07:30:52.996Z,39.33
2023-03-30T07:33:22.637Z,39.01
2023-03-30T07:35:51.040Z,39.08
2023-03-30T07:38:23.274Z,39.14
2023-03-30T07:40:54.541Z,38.87
2023-03-30T07:43:23.940Z,38.51
2023-03-30T07:45:57.996Z,38.71
2023-03-30T07:48:34.094Z,38.56
2023-03-30T07:51:03.618Z,38.63
2023-03-30T07:53:33.839Z,38.28
2023-03-30T07:56:06.780Z,38.30
2023-03-30T07:58:44.199Z,38.41
2023-03-30T08:01:15.965Z,38.34
2023-03-30T08:04:02.693Z,38.56
2023-03-30T08:06:31.930Z,38.46
2023-03-30T08:09:04.558Z,38.15
2023-03-30T08:11:34.802Z,38.10
2023-03-30T08:14:04.568Z,37.98
2023-03-30T08:16:33.467Z,38.05
2023-03-30T08:19:03.773Z,38.20
2023-03-30T08:21:32.523Z,38.29
2023-03-30T08:24:01.284Z,38.08
2023-03-30T08:26:37.334Z,37.95
2023-03-30T08:29:07.183Z,37.38
2023-03-30T08:31:38.050Z,37.76
2023-03-30T08:34:08.120Z,38.21
2023-03-30T08:36:36.470Z,38.02
2023-03-30T08:39:11.089Z,37.69
2023-03-30T08:42:02.193Z,37.56
2023-03-30T08:44:35.827Z,37.10
2023-03-30T08:47:06.590Z,37.22
2023-03-30T08:49:39.050Z,36.81
2023-03-30T08:52:10.914Z,36.73
2023-03-30T08:54:39.486Z,37.06
2023-03-30T08:57:20.786Z,36.94
2023-03-30T09:00:06.943Z,36.26
2023-03-30T09:02:39.836Z,36.57
2023-03-30T09:05:23.062Z,36.77
2023-03-30T09:08:22.873Z,36.65
2023-03-30T09:11:01.229Z,36.94
2023-03-30T09:13:38.197Z,37.21
2023-03-30T09:16:23.250Z,36.94
2023-03-30T09:18:54.105Z,36.49
2023-03-30T09:21:23.902Z,35.98
2023-03-30T09:23:54.003Z,35.91
2023-03-30T09:26:45.151Z,35.65
2023-03-30T09:29:22.357Z,34.67
2023-03-30T09:31:54.888Z,34.32
2023-03-30T09:34:27.523Z,34.52
2023-03-30T09:37:00.499Z,34.81
2023-03-30T09:39:30.490Z,35.14
2023-03-30T09:42:16.520Z,34.81
2023-03-30T09:44:53.508Z,34.11
2023-03-30T09:47:23.395Z,34.16
2023-03-30T09:50:02.558Z,33.91
2023-03-30T09:52:37.192Z,34.30
2023-03-30T09:55:21.409Z,34.38
2023-03-30T09:57:51.219Z,33.83
2023-03-30T10:00:34.470Z,33.36
2023-03-30T10:03:22.912Z,33.35
2023-03-30T10:06:05.634Z,33.28
2023-03-30T10:08:55.250Z,33.07
2023-03-30T10:11:45.621Z,32.83
2023-03-30T10:14:28.714Z,33.14
2023-03-30T10:16:59.238Z,33.35
2023-03-30T10:19:29.292Z,32.99
2023-03-30T10:21:58.993Z,33.21
2023-03-30T10:24:33.387Z,33.12
2023-03-30T10:27:13.326Z,32.82
2023-03-30T10:29:50.762Z,32.40
2023-03-30T10:32:27.104Z,32.25
2023-03-30T10:34:56.887Z,32.52
2023-03-30T10:37:40.402Z,32.11
2023-03-30T10:40:19.521Z,31.79
2023-03-30T10:42:50.166Z,31.76
2023-03-30T10:45:27.015Z,31.73
2023-03-30T10:48:01.604Z,30.32
2023-03-30T10:50:36.147Z,30.03
2023-03-30T10:53:43.235Z,29.92
2023-03-30T10:56:39.154Z,29.91
2023-03-30T10:59:29.131Z,30.29
2023-03-30T11:02:07.091Z,30.32
2023-03-30T11:04:42.284Z,30.16
2023-03-30T11:07:26.110Z,30.18
2023-03-30T11:09:56.826Z,29.95
2023-03-30T11:12:27.133Z,29.69
2023-03-30T11:15:01.152Z,29.68
2023-03-30T11:17:32.239Z,29.06
2023-03-30T11:20:28.863Z,28.85
2023-03-30T11:23:06.135Z,28.87
2023-03-30T11:25:40.118Z,29.01
2023-03-30T11:28:27.275Z,28.86
2023-03-30T11:30:56.724Z,28.28
2023-03-30T11:33:51.220Z,27.95
2023-03-30T11:36:24.217Z,27.36
2023-03-30T11:38:57.440Z,27.20
2023-03-30T11:41:38.293Z,26.81
2023-03-30T11:44:10.895Z,26.76
2023-03-30T11:46:56.376Z,27.03
2023-03-30T11:49:33.500Z,26.94
2023-03-30T11:52:31.844Z,26.31
2023-03-30T11:55:19.279Z,25.53
2023-03-30T11:58:22.040Z,24.27
2023-03-30T12:00:50.672Z,24.86
2023-03-30T12:03:40.115Z,24.87
2023-03-30T12:06:31.707Z,24.95
2023-03-30T12:09:04.903Z,25.09
2023-03-30T12:11:42.268Z,24.63
2023-03-30T12:14:24.619Z,24.28
2023-03-30T12:16:55.395Z,24.54
2023-03-30T12:19:30.471Z,24.42
2023-03-30T12:22:09.025Z,24.20
2023-03-30T12:24:54.750Z,23.88
2023-03-30T12:27:23.858Z,24.10
2023-03-30T12:30:12.208Z,24.10
2023-03-30T12:32:56.946Z,24.11
2023-03-30T12:35:53.569Z,23.73
2023-03-30T12:38:25.820Z,23.86
2023-03-30T12:41:03.906Z,24.19
2023-03-30T12:43:55.624Z,24.14
2023-03-30T12:46:58.791Z,24.24
2023-03-30T12:49:45.434Z,24.15
2023-03-30T12:52:46.053Z,24.00
2023-03-30T12:55:33.413Z,23.24
2023-03-30T12:58:36.691Z,23.06
2023-03-30T13:01:12.474Z,23.19
2023-03-30T13:03:53.004Z,23.08
2023-03-30T13:06:42.117Z,22.87
2023-03-30T13:09:54.186Z,24.02
2023-03-30T13:12:38.540Z,25.01
2023-03-30T13:15:16.871Z,24.78
2023-03-30T13:18:00.774Z,25.18
2023-03-30T13:20:30.911Z,24.81
2023-03-30T13:23:09.339Z,25.04
2023-03-30T13:25:50.217Z,25.10
2023-03-30T13:28:37.474Z,25.43
2023-03-30T13:31:30.856Z,25.38
2023-03-30T13:34:20.385Z,25.06
2023-03-30T13:37:00.120Z,24.55
2023-03-30T13:39:31.284Z,24.57
2023-03-30T13:42:18.070Z,24.06
2023-03-30T13:45:09.527Z,23.86
2023-03-30T13:47:48.026Z,23.77
2023-03-30T13:50:27.472Z,23.44
2023-03-30T13:52:56.108Z,23.71
2023-03-30T13:55:39.499Z,23.43
2023-03-30T13:58:30.051Z,23.72
2023-03-30T14:01:12.837Z,24.17
2023-03-30T14:03:44.567Z,24.73
2023-03-30T14:06:13.707Z,25.08
2023-03-30T14:08:48.049Z,25.89
2023-03-30T14:11:48.639Z,26.39
2023-03-30T14:14:31.282Z,26.08
2023-03-30T14:17:01.512Z,26.42
2023-03-30T14:19:36.392Z,26.78
2023-03-30T14:22:16.384Z,27.27
2023-03-30T14:24:58.011Z,27.91
2023-03-30T14:27:26.571Z,28.06
2023-03-30T14:29:55.229Z,28.42
2023-03-30T14:32:25.215Z,28.94
2023-03-30T14:34:54.178Z,29.61
2023-03-30T14:37:23.556Z,29.85
2023-03-30T14:39:53.769Z,30.37
2023-03-30T14:42:24.720Z,30.72
2023-03-30T14:44:59.577Z,30.89
2023-03-30T14:47:28.129Z,31.23
2023-03-30T14:49:58.499Z,31.37
2023-03-30T14:52:44.517Z,31.55
2023-03-30T14:55:22.733Z,32.03
2023-03-30T14:57:57.461Z,32.16
2023-03-30T15:00:29.106Z,32.29
2023-03-30T15:03:00.025Z,32.35
2023-03-30T15:05:34.302Z,32.53
2023-03-30T15:08:02.606Z,32.84
2023-03-30T15:10:50.988Z,32.99
2023-03-30T15:13:39.583Z,33.20
2023-03-30T15:16:08.303Z,33.55
2023-03-30T15:18:39.209Z,33.64
2023-03-30T15:21:09.493Z,33.61
2023-03-30T15:23:41.209Z,33.75
2023-03-30T15:26:09.902Z,34.22
2023-03-30T15:28:47.720Z,34.24
2023-03-30T15:31:21.093Z,34.38
2023-03-30T15:34:02.239Z,34.75
2023-03-30T15:36:33.535Z,34.73
2023-03-30T15:39:21.820Z,34.60
2023-03-30T15:42:04.524Z,34.17
2023-03-30T15:44:37.235Z,34.03
2023-03-30T15:47:11.237Z,33.90
2023-03-30T15:49:49.262Z,33.67
2023-03-30T15:52:22.932Z,33.86
2023-03-30T15:54:55.490Z,33.95
2023-03-30T15:57:27.935Z,33.92
2023-03-30T15:59:57.227Z,34.53
2023-03-30T16:02:32.513Z,34.77
2023-03-30T16:05:01.831Z,34.81
2023-03-30T16:07:30.320Z,35.22
2023-03-30T16:10:06.364Z,35.33
2023-03-30T16:12:41.685Z,35.43
2023-03-30T16:15:17.532Z,35.54
2023-03-30T16:17:47.792Z,36.03
2023-03-30T16:20:18.887Z,36.33
2023-03-30T16:22:47.657Z,36.64
2023-03-30T16:25:17.527Z,36.89
2023-03-30T16:27:45.940Z,37.06
2023-03-30T16:30:19.084Z,37.52
2023-03-30T16:32:49.236Z,37.86
2023-03-30T16:35:17.694Z,38.12
2023-03-30T16:37:47.831Z,38.51
2023-03-30T16:40:21.978Z,38.71
2023-03-30T16:42:51.581Z,39.36
2023-03-30T16:45:19.841Z,39.59
2023-03-30T16:47:48.393Z,40.19
2023-03-30T16:50:24.285Z,40.42
2023-03-30T16:52:52.501Z,41.04
2023-03-30T16:55:20.954Z,41.70
2023-03-30T16:57:49.231Z,41.84
2023-03-30T17:00:28.841Z,41.70
2023-03-30T17:02:57.377Z,41.28
2023-03-30T17:05:25.965Z,41.35
2023-03-30T17:07:54.846Z,41.83
2023-03-30T17:10:33.262Z,41.77
2023-03-30T17:13:02.788Z,41.92
2023-03-30T17:15:31.799Z,41.82
2023-03-30T17:18:00.392Z,42.08
2023-03-30T17:20:53.595Z,43.19
2023-03-30T17:23:23.787Z,44.24
2023-03-30T17:25:55.353Z,44.17
2023-03-30T17:28:34.261Z,44.49
2023-03-30T17:31:04.798Z,44.86
2023-03-30T17:33:37.101Z,45.01
2023-03-30T17:36:10.905Z,45.00
2023-03-30T17:38:43.537Z,45.06
2023-03-30T17:41:12.727Z,45.57
2023-03-30T17:43:41.012Z,45.98
2023-03-30T17:46:13.270Z,46.35
2023-03-30T17:48:42.149Z,46.34
2023-03-30T17:51:12.219Z,47.33
2023-03-30T17:53:40.676Z,48.01
2023-03-30T17:56:12.241Z,48.59
2023-03-30T17:58:40.495Z,49.08
2023-03-30T18:01:09.443Z,49.33
2023-03-30T18:03:40.401Z,49.70
2023-03-30T18:06:11.867Z,49.99
2023-03-30T18:08:40.661Z,50.40
2023-03-30T18:11:09.228Z,50.90
2023-03-30T18:13:38.196Z,51.16
2023-03-30T18:16:07.214Z,51.58
2023-03-30T18:18:37.681Z,51.87
2023-03-30T18:21:06.957Z,52.51
2023-03-30T18:23:37.468Z,52.56
2023-03-30T18:26:11.233Z,53.07
2023-03-30T18:28:44.150Z,53.72
2023-03-30T18:31:13.705Z,53.59
2023-03-30T18:33:41.962Z,53.70
2023-03-30T18:36:13.085Z,54.06
2023-03-30T18:38:42.528Z,54.69
2023-03-30T18:41:12.997Z,54.68
2023-03-30T18:43:41.706Z,54.79
2023-03-30T18:46:11.565Z,55.04
2023-03-30T18:48:41.891Z,55.20
2023-03-30T18:51:11.800Z,55.53
2023-03-30T18:53:42.715Z,55.83
2023-03-30T18:56:12.542Z,56.09
2023-03-30T18:58:42.789Z,56.23
2023-03-30T19:01:16.195Z,56.53
2023-03-30T19:03:45.979Z,56.57
2023-03-30T19:06:19.772Z,56.37
2023-03-30T19:08:49.282Z,56.45
2023-03-30T19:11:21.888Z,55.99
2023-03-30T19:13:50.308Z,56.30
2023-03-30T19:16:21.376Z,56.65
2023-03-30T19:18:50.864Z,56.77
2023-03-30T19:21:19.276Z,57.01
2023-03-30T19:23:48.126Z,57.28
2023-03-30T19:26:16.980Z,57.57
2023-03-30T19:28:46.792Z,57.89
2023-03-30T19:31:17.083Z,58.39
2023-03-30T19:33:45.333Z,58.82
2023-03-30T19:36:14.539Z,59.27
2023-03-30T19:38:44.398Z,59.66
2023-03-30T19:41:18.537Z,59.98
2023-03-30T19:43:50.253Z,60.13
2023-03-30T19:46:18.874Z,60.37
2023-03-30T19:48:47.478Z,60.73
2023-03-30T19:51:16.869Z,61.02
2023-03-30T19:53:49.208Z,61.17
2023-03-30T19:56:18.469Z,61.29
2023-03-30T19:58:46.680Z,61.69
2023-03-30T20:01:16.985Z,61.71
2023-03-30T20:03:48.784Z,62.36
2023-03-30T20:06:16.951Z,62.72
2023-03-30T20:08:47.097Z,62.76
2023-03-30T20:11:16.396Z,63.21
2023-03-30T20:13:46.417Z,63.49
2023-03-30T20:16:22.517Z,63.80
2023-03-30T20:18:53.321Z,64.03
2023-03-30T20:21:25.577Z,64.39
2023-03-30T20:23:56.259Z,64.46
2023-03-30T20:26:24.673Z,64.68
2023-03-30T20:28:57.020Z,64.69
2023-03-30T20:31:25.941Z,64.91
2023-03-30T20:33:54.346Z,65.36
2023-03-30T20:36:23.087Z,65.38
2023-03-30T20:38:51.395Z,65.50
2023-03-30T20:41:22.536Z,65.87
2023-03-30T20:43:57.182Z,65.83
2023-03-30T20:46:35.478Z,65.76
2023-03-30T20:49:05.042Z,65.92
2023-03-30T20:51:33.372Z,66.06
2023-03-30T20:54:01.648Z,66.14
2023-03-30T20:56:29.956Z,66.05
2023-03-30T20:58:59.270Z,66.22
2023-03-30T21:01:29.518Z,66.23
2023-03-30T21:03:59.430Z,66.32
2023-03-30T21:06:30.009Z,66.12
2023-03-30T21:09:02.418Z,66.40
2023-03-30T21:11:33.878Z,66.04
2023-03-30T21:14:02.273Z,66.19
2023-03-30T21:16:31.727Z,66.24
2023-03-30T21:19:01.330Z,66.23
2023-03-30T21:21:31.513Z,66.56
2023-03-30T21:24:01.863Z,66.26
2023-03-30T21:26:30.575Z,66.14
2023-03-30T21:28:58.824Z,66.18
2023-03-30T21:31:29.038Z,65.96
2023-03-30T21:33:58.147Z,66.46
2023-03-30T21:36:26.453Z,66.43
2023-03-30T21:38:57.669Z,66.66
2023-03-30T21:41:26.555Z,67.16
2023-03-30T21:43:55.361Z,67.02
2023-03-30T21:46:24.853Z,67.24
2023-03-30T21:48:55.927Z,66.97
2023-03-30T21:51:28.506Z,67.02
2023-03-30T21:53:59.480Z,67.02
2023-03-30T21:56:29.626Z,67.16
2023-03-30T21:58:58.887Z,67.36
2023-03-30T22:01:28.480Z,67.43
2023-03-30T22:03:57.076Z,67.12
2023-03-30T22:06:25.789Z,67.52
2023-03-30T22:08:54.285Z,67.81
2023-03-30T22:11:24.425Z,67.95
2023-03-30T22:13:55.717Z,67.92
2023-03-30T22:16:28.961Z,67.96
2023-03-30T22:19:13.382Z,68.17
2023-03-30T22:21:42.527Z,68.08
2023-03-30T22:24:11.222Z,68.34
2023-03-30T22:26:40.740Z,68.68
2023-03-30T22:29:09.107Z,68.53
2023-03-30T22:31:41.526Z,68.41
2023-03-30T22:34:10.624Z,68.44
2023-03-30T22:36:39.506Z,68.42
2023-03-30T22:39:16.819Z,68.33
2023-03-30T22:41:46.367Z,67.89
2023-03-30T22:44:15.014Z,67.75
2023-03-30T22:46:43.511Z,67.05
2023-03-30T22:49:12.187Z,66.68
2023-03-30T22:51:52.658Z,66.65
2023-03-30T22:54:21.515Z,66.40
2023-03-30T22:56:51.250Z,66.09
2023-03-30T22:59:19.521Z,65.68
2023-03-30T23:01:47.697Z,65.56
2023-03-30T23:04:17.282Z,65.44
2023-03-30T23:06:46.155Z,65.28
2023-03-30T23:09:14.667Z,65.39
2023-03-30T23:11:46.052Z,65.82
2023-03-30T23:14:14.467Z,65.81
2023-03-30T23:16:42.711Z,65.66
2023-03-30T23:19:13.826Z,65.48
2023-03-30T23:21:44.771Z,65.57
2023-03-30T23:24:16.600Z,65.57
2023-03-30T23:26:45.445Z,65.58
2023-03-30T23:29:13.928Z,65.65
2023-03-30T23:31:42.147Z,65.67
2023-03-30T23:34:12.257Z,66.17
2023-03-30T23:36:40.357Z,66.16
2023-03-30T23:39:10.319Z,66.15
2023-03-30T23:41:38.484Z,66.34
2023-03-30T23:44:07.390Z,66.57
2023-03-30T23:46:36.074Z,66.18
2023-03-30T23:49:04.366Z,66.50
2023-03-30T23:51:33.139Z,66.57
2023-03-30T23:54:06.416Z,66.70
2023-03-30T23:56:37.246Z,66.74
2023-03-30T23:59:05.502Z,66.49
